sensor_id;sensor_type;location;lat;lon;timestamp;pressure;altitude;pressure_sealevel;temperature;humidity
34297;BME280;20564;42.902;25.336;2024-01-30T00:01:08;99421.41;;;0.59;90.44
34297;BME280;20564;42.902;25.336;2024-01-30T00:03:35;99411.88;;;0.58;89.60
34297;BME280;20564;42.902;25.336;2024-01-30T00:06:05;99414.56;;;0.53;90.33
34297;BME280;20564;42.902;25.336;2024-01-30T00:08:32;99418.94;;;0.50;90.61
34297;BME280;20564;42.902;25.336;2024-01-30T00:10:59;99423.34;;;0.44;90.46
34297;BME280;20564;42.902;25.336;2024-01-30T00:13:27;99422.56;;;0.36;91.09
34297;BME280;20564;42.902;25.336;2024-01-30T00:15:54;99428.63;;;0.37;91.85
34297;BME280;20564;42.902;25.336;2024-01-30T00:18:21;99429.53;;;0.33;92.59
34297;BME280;20564;42.902;25.336;2024-01-30T00:20:48;99425.16;;;0.36;92.90
34297;BME280;20564;42.902;25.336;2024-01-30T00:23:15;99425.97;;;0.40;92.17
34297;BME280;20564;42.902;25.336;2024-01-30T00:25:41;99429.47;;;0.36;91.74
34297;BME280;20564;42.902;25.336;2024-01-30T00:28:08;99426.81;;;0.42;92.31
34297;BME280;20564;42.902;25.336;2024-01-30T00:30:36;99430.34;;;0.38;91.71
34297;BME280;20564;42.902;25.336;2024-01-30T00:33:03;99438.91;;;0.41;91.35
34297;BME280;20564;42.902;25.336;2024-01-30T00:35:30;99444.16;;;0.37;91.53
34297;BME280;20564;42.902;25.336;2024-01-30T00:37:56;99444.25;;;0.29;92.51
34297;BME280;20564;42.902;25.336;2024-01-30T00:40:24;99442.59;;;0.25;92.27
34297;BME280;20564;42.902;25.336;2024-01-30T00:42:51;99438.41;;;0.16;93.17
34297;BME280;20564;42.902;25.336;2024-01-30T00:45:18;99440.13;;;0.14;93.53
34297;BME280;20564;42.902;25.336;2024-01-30T00:47:45;99437.63;;;0.11;93.69
34297;BME280;20564;42.902;25.336;2024-01-30T00:50:12;99439.25;;;0.17;94.38
34297;BME280;20564;42.902;25.336;2024-01-30T00:52:39;99440.19;;;0.11;93.91
34297;BME280;20564;42.902;25.336;2024-01-30T00:55:08;99441.94;;;0.09;94.57
34297;BME280;20564;42.902;25.336;2024-01-30T00:57:35;99439.41;;;0.05;94.46
34297;BME280;20564;42.902;25.336;2024-01-30T01:00:03;99443.81;;;-0.02;95.99
34297;BME280;20564;42.902;25.336;2024-01-30T01:02:29;99430.91;;;-0.04;95.88
34297;BME280;20564;42.902;25.336;2024-01-30T01:04:56;99432.66;;;-0.07;96.69
34297;BME280;20564;42.902;25.336;2024-01-30T01:07:23;99431.78;;;-0.06;96.45
34297;BME280;20564;42.902;25.336;2024-01-30T01:09:50;99423.13;;;-0.05;96.83
34297;BME280;20564;42.902;25.336;2024-01-30T01:12:17;99429.91;;;0.05;97.15
34297;BME280;20564;42.902;25.336;2024-01-30T01:14:44;99424.69;;;0.08;96.98
34297;BME280;20564;42.902;25.336;2024-01-30T01:17:11;99420.34;;;0.12;96.29
34297;BME280;20564;42.902;25.336;2024-01-30T01:19:38;99418.59;;;0.12;96.28
34297;BME280;20564;42.902;25.336;2024-01-30T01:22:06;99414.31;;;0.11;95.89
34297;BME280;20564;42.902;25.336;2024-01-30T01:24:33;99409.13;;;0.11;95.25
34297;BME280;20564;42.902;25.336;2024-01-30T01:27:00;99401.28;;;0.14;95.59
34297;BME280;20564;42.902;25.336;2024-01-30T01:29:27;99410.88;;;0.09;95.28
34297;BME280;20564;42.902;25.336;2024-01-30T01:31:57;99405.69;;;0.09;95.27
34297;BME280;20564;42.902;25.336;2024-01-30T01:34:24;99400.50;;;0.09;94.68
34297;BME280;20564;42.902;25.336;2024-01-30T01:36:56;99405.69;;;0.09;95.03
34297;BME280;20564;42.902;25.336;2024-01-30T01:39:23;99408.34;;;0.05;95.93
34297;BME280;20564;42.902;25.336;2024-01-30T01:41:50;99393.63;;;0.08;96.01
34297;BME280;20564;42.902;25.336;2024-01-30T01:44:18;99410.78;;;0.15;95.98
34297;BME280;20564;42.902;25.336;2024-01-30T01:46:46;99406.44;;;0.17;95.36
34297;BME280;20564;42.902;25.336;2024-01-30T01:49:13;99399.41;;;0.26;94.25
34297;BME280;20564;42.902;25.336;2024-01-30T01:51:42;99408.09;;;0.21;94.37
34297;BME280;20564;42.902;25.336;2024-01-30T01:54:11;99410.63;;;0.28;95.17
34297;BME280;20564;42.902;25.336;2024-01-30T01:56:38;99408.88;;;0.30;94.15
34297;BME280;20564;42.902;25.336;2024-01-30T01:59:08;99407.97;;;0.31;94.06
34297;BME280;20564;42.902;25.336;2024-01-30T02:01:38;99399.38;;;0.29;94.46
34297;BME280;20564;42.902;25.336;2024-01-30T02:04:07;99397.75;;;0.21;94.71
34297;BME280;20564;42.902;25.336;2024-01-30T02:06:35;99399.44;;;0.24;94.86
34297;BME280;20564;42.902;25.336;2024-01-30T02:09:02;99405.41;;;0.29;94.40
34297;BME280;20564;42.902;25.336;2024-01-30T02:11:31;99400.28;;;0.24;94.77
34297;BME280;20564;42.902;25.336;2024-01-30T02:14:02;99397.66;;;0.28;94.92
34297;BME280;20564;42.902;25.336;2024-01-30T02:16:31;99396.88;;;0.22;94.89
34297;BME280;20564;42.902;25.336;2024-01-30T02:18:58;99389.09;;;0.24;94.81
34297;BME280;20564;42.902;25.336;2024-01-30T02:21:25;99386.53;;;0.22;94.39
34297;BME280;20564;42.902;25.336;2024-01-30T02:23:54;99401.25;;;0.17;94.72
34297;BME280;20564;42.902;25.336;2024-01-30T02:26:21;99402.31;;;0.04;94.86
34297;BME280;20564;42.902;25.336;2024-01-30T02:28:48;99408.41;;;0.00;96.20
34297;BME280;20564;42.902;25.336;2024-01-30T02:31:15;99404.97;;;-0.02;96.07
34297;BME280;20564;42.902;25.336;2024-01-30T02:33:42;99400.69;;;-0.03;95.69
34297;BME280;20564;42.902;25.336;2024-01-30T02:36:09;99400.72;;;-0.06;96.73
34297;BME280;20564;42.902;25.336;2024-01-30T02:38:36;99400.69;;;-0.03;95.35
34297;BME280;20564;42.902;25.336;2024-01-30T02:41:02;99409.28;;;-0.01;95.31
34297;BME280;20564;42.902;25.336;2024-01-30T02:43:29;99393.78;;;-0.04;95.58
34297;BME280;20564;42.902;25.336;2024-01-30T02:45:56;99395.47;;;-0.02;95.91
34297;BME280;20564;42.902;25.336;2024-01-30T02:48:24;99395.50;;;-0.03;94.81
34297;BME280;20564;42.902;25.336;2024-01-30T02:50:51;99388.66;;;-0.07;95.68
34297;BME280;20564;42.902;25.336;2024-01-30T02:53:18;99397.19;;;0.01;95.60
34297;BME280;20564;42.902;25.336;2024-01-30T02:55:45;99392.88;;;0.00;94.11
34297;BME280;20564;42.902;25.336;2024-01-30T02:58:12;99385.97;;;-0.01;94.96
34297;BME280;20564;42.902;25.336;2024-01-30T03:00:39;99392.88;;;0.00;94.89
34297;BME280;20564;42.902;25.336;2024-01-30T03:03:06;99386.81;;;0.01;94.81
34297;BME280;20564;42.902;25.336;2024-01-30T03:05:32;99389.38;;;0.03;94.75
34297;BME280;20564;42.902;25.336;2024-01-30T03:07:59;99390.22;;;0.03;94.43
34297;BME280;20564;42.902;25.336;2024-01-30T03:10:26;99387.63;;;0.05;94.66
34297;BME280;20564;42.902;25.336;2024-01-30T03:12:53;99393.63;;;0.07;94.17
34297;BME280;20564;42.902;25.336;2024-01-30T03:15:20;99384.19;;;0.04;94.87
34297;BME280;20564;42.902;25.336;2024-01-30T03:17:47;99392.84;;;0.02;93.77
34297;BME280;20564;42.902;25.336;2024-01-30T03:20:14;99380.91;;;-0.07;94.43
34297;BME280;20564;42.902;25.336;2024-01-30T03:22:41;99383.34;;;0.02;93.80
34297;BME280;20564;42.902;25.336;2024-01-30T03:25:11;99385.19;;;-0.06;94.33
34297;BME280;20564;42.902;25.336;2024-01-30T03:27:38;99394.59;;;-0.01;94.15
34297;BME280;20564;42.902;25.336;2024-01-30T03:30:06;99392.00;;;0.01;93.58
34297;BME280;20564;42.902;25.336;2024-01-30T03:32:33;99389.56;;;-0.10;94.33
34297;BME280;20564;42.902;25.336;2024-01-30T03:35:00;99393.84;;;-0.07;94.40
34297;BME280;20564;42.902;25.336;2024-01-30T03:37:27;99386.00;;;-0.04;94.53
34297;BME280;20564;42.902;25.336;2024-01-30T03:39:54;99380.06;;;-0.09;94.07
34297;BME280;20564;42.902;25.336;2024-01-30T03:42:22;99382.72;;;-0.15;94.74
34297;BME280;20564;42.902;25.336;2024-01-30T03:44:49;99381.88;;;-0.17;94.20
34297;BME280;20564;42.902;25.336;2024-01-30T03:47:19;99383.56;;;-0.13;94.19
34297;BME280;20564;42.902;25.336;2024-01-30T03:49:47;99388.88;;;-0.24;94.34
34297;BME280;20564;42.902;25.336;2024-01-30T03:52:14;99389.69;;;-0.22;94.52
34297;BME280;20564;42.902;25.336;2024-01-30T03:54:41;99387.97;;;-0.21;95.07
34297;BME280;20564;42.902;25.336;2024-01-30T03:57:08;99387.97;;;-0.23;95.56
34297;BME280;20564;42.902;25.336;2024-01-30T03:59:34;99377.72;;;-0.29;96.01
34297;BME280;20564;42.902;25.336;2024-01-30T04:02:01;99384.53;;;-0.23;96.44
34297;BME280;20564;42.902;25.336;2024-01-30T04:04:28;99376.78;;;-0.23;96.09
34297;BME280;20564;42.902;25.336;2024-01-30T04:06:55;99385.41;;;-0.21;96.60
34297;BME280;20564;42.902;25.336;2024-01-30T04:09:22;99382.84;;;-0.26;96.48
34297;BME280;20564;42.902;25.336;2024-01-30T04:11:49;99386.28;;;-0.24;97.56
34297;BME280;20564;42.902;25.336;2024-01-30T04:14:16;99386.28;;;-0.24;95.82
34297;BME280;20564;42.902;25.336;2024-01-30T04:16:43;99389.84;;;-0.33;97.09
34297;BME280;20564;42.902;25.336;2024-01-30T04:19:10;99389.81;;;-0.31;98.18
34297;BME280;20564;42.902;25.336;2024-01-30T04:21:37;99388.09;;;-0.29;97.88
34297;BME280;20564;42.902;25.336;2024-01-30T04:24:05;99390.72;;;-0.35;97.72
34297;BME280;20564;42.902;25.336;2024-01-30T04:26:32;99389.78;;;-0.30;98.04
34297;BME280;20564;42.902;25.336;2024-01-30T04:28:58;99402.69;;;-0.27;97.69
34297;BME280;20564;42.902;25.336;2024-01-30T04:31:25;99400.97;;;-0.26;97.42
34297;BME280;20564;42.902;25.336;2024-01-30T04:33:52;99402.69;;;-0.27;97.26
34297;BME280;20564;42.902;25.336;2024-01-30T04:36:19;99412.28;;;-0.35;97.88
34297;BME280;20564;42.902;25.336;2024-01-30T04:38:46;99414.03;;;-0.37;98.16
34297;BME280;20564;42.902;25.336;2024-01-30T04:41:13;99413.25;;;-0.45;98.56
34297;BME280;20564;42.902;25.336;2024-01-30T04:43:40;99406.38;;;-0.46;99.18
34297;BME280;20564;42.902;25.336;2024-01-30T04:46:07;99417.53;;;-0.39;99.68
34297;BME280;20564;42.902;25.336;2024-01-30T04:48:34;99409.88;;;-0.50;99.56
34297;BME280;20564;42.902;25.336;2024-01-30T04:51:01;99414.16;;;-0.47;100.00
34297;BME280;20564;42.902;25.336;2024-01-30T04:53:30;99412.44;;;-0.49;99.76
34297;BME280;20564;42.902;25.336;2024-01-30T04:55:57;99414.16;;;-0.47;99.93
34297;BME280;20564;42.902;25.336;2024-01-30T04:58:24;99418.44;;;-0.45;100.00
34297;BME280;20564;42.902;25.336;2024-01-30T05:00:51;99419.28;;;-0.44;99.99
34297;BME280;20564;42.902;25.336;2024-01-30T05:03:19;99412.38;;;-0.42;99.82
34297;BME280;20564;42.902;25.336;2024-01-30T05:05:46;99418.44;;;-0.45;99.71
34297;BME280;20564;42.902;25.336;2024-01-30T05:08:13;99422.81;;;-0.50;99.58
34297;BME280;20564;42.902;25.336;2024-01-30T05:10:41;99422.88;;;-0.55;99.58
34297;BME280;20564;42.902;25.336;2024-01-30T05:13:08;99416.91;;;-0.61;100.00
34297;BME280;20564;42.902;25.336;2024-01-30T05:15:35;99420.34;;;-0.62;99.66
34297;BME280;20564;42.902;25.336;2024-01-30T05:18:05;99423.75;;;-0.57;100.00
34297;BME280;20564;42.902;25.336;2024-01-30T05:20:32;99421.13;;;-0.54;100.00
34297;BME280;20564;42.902;25.336;2024-01-30T05:22:58;99423.72;;;-0.54;99.46
34297;BME280;20564;42.902;25.336;2024-01-30T05:25:25;99417.66;;;-0.53;99.49
34297;BME280;20564;42.902;25.336;2024-01-30T05:27:52;99421.94;;;-0.49;99.91
34297;BME280;20564;42.902;25.336;2024-01-30T05:30:19;99418.47;;;-0.46;100.00
34297;BME280;20564;42.902;25.336;2024-01-30T05:32:46;99421.94;;;-0.49;99.23
34297;BME280;20564;42.902;25.336;2024-01-30T05:35:13;99432.22;;;-0.43;98.71
34297;BME280;20564;42.902;25.336;2024-01-30T05:37:40;99433.06;;;-0.42;98.11
34297;BME280;20564;42.902;25.336;2024-01-30T05:40:07;99432.22;;;-0.43;98.21
34297;BME280;20564;42.902;25.336;2024-01-30T05:42:34;99436.41;;;-0.34;97.93
34297;BME280;20564;42.902;25.336;2024-01-30T05:45:01;99432.06;;;-0.31;97.63
34297;BME280;20564;42.902;25.336;2024-01-30T05:47:28;99432.94;;;-0.29;97.80
34297;BME280;20564;42.902;25.336;2024-01-30T05:49:55;99433.78;;;-0.30;97.58
34297;BME280;20564;42.902;25.336;2024-01-30T05:52:22;99431.97;;;-0.23;97.17
34297;BME280;20564;42.902;25.336;2024-01-30T05:54:49;99430.25;;;-0.22;96.56
34297;BME280;20564;42.902;25.336;2024-01-30T05:57:16;99433.66;;;-0.17;95.31
34297;BME280;20564;42.902;25.336;2024-01-30T05:59:44;99439.69;;;-0.18;95.72
34297;BME280;20564;42.902;25.336;2024-01-30T06:02:11;99432.81;;;-0.18;96.08
34297;BME280;20564;42.902;25.336;2024-01-30T06:04:39;99438.00;;;-0.22;96.21
34297;BME280;20564;42.902;25.336;2024-01-30T06:07:06;99439.72;;;-0.20;95.19
34297;BME280;20564;42.902;25.336;2024-01-30T06:09:34;99438.84;;;-0.20;95.16
34297;BME280;20564;42.902;25.336;2024-01-30T06:12:01;99440.50;;;-0.13;95.17
34297;BME280;20564;42.902;25.336;2024-01-30T06:14:28;99428.47;;;-0.17;95.00
34297;BME280;20564;42.902;25.336;2024-01-30T06:16:55;99433.56;;;-0.11;94.57
34297;BME280;20564;42.902;25.336;2024-01-30T06:19:22;99427.63;;;-0.18;94.49
34297;BME280;20564;42.902;25.336;2024-01-30T06:21:49;99432.91;;;-0.26;95.29
34297;BME280;20564;42.902;25.336;2024-01-30T06:24:16;99429.41;;;-0.26;94.82
34297;BME280;20564;42.902;25.336;2024-01-30T06:26:43;99428.53;;;-0.23;95.80
34297;BME280;20564;42.902;25.336;2024-01-30T06:29:10;99428.50;;;-0.20;95.73
34297;BME280;20564;42.902;25.336;2024-01-30T06:31:41;99437.88;;;-0.12;94.83
34297;BME280;20564;42.902;25.336;2024-01-30T06:34:09;99429.34;;;-0.20;94.15
34297;BME280;20564;42.902;25.336;2024-01-30T06:36:36;99438.00;;;-0.21;95.35
34297;BME280;20564;42.902;25.336;2024-01-30T06:39:03;99437.13;;;-0.20;95.76
34297;BME280;20564;42.902;25.336;2024-01-30T06:41:30;99437.91;;;-0.13;95.12
34297;BME280;20564;42.902;25.336;2024-01-30T06:43:57;99438.72;;;-0.11;94.63
34297;BME280;20564;42.902;25.336;2024-01-30T06:46:24;99437.84;;;-0.07;93.27
34297;BME280;20564;42.902;25.336;2024-01-30T06:48:51;99441.31;;;-0.11;93.53
34297;BME280;20564;42.902;25.336;2024-01-30T06:51:18;99437.94;;;-0.16;94.21
34297;BME280;20564;42.902;25.336;2024-01-30T06:53:45;99444.00;;;-0.17;94.38
34297;BME280;20564;42.902;25.336;2024-01-30T06:56:12;99452.59;;;-0.15;94.17
34297;BME280;20564;42.902;25.336;2024-01-30T06:58:40;99449.25;;;-0.23;94.54
34297;BME280;20564;42.902;25.336;2024-01-30T07:01:07;99451.03;;;-0.29;94.50
34297;BME280;20564;42.902;25.336;2024-01-30T07:03:34;99456.28;;;-0.35;94.58
34297;BME280;20564;42.902;25.336;2024-01-30T07:06:01;99458.00;;;-0.37;95.28
34297;BME280;20564;42.902;25.336;2024-01-30T07:08:27;99451.09;;;-0.35;95.80
34297;BME280;20564;42.902;25.336;2024-01-30T07:10:54;99455.31;;;-0.26;96.03
34297;BME280;20564;42.902;25.336;2024-01-30T07:13:27;99456.13;;;-0.22;95.53
34297;BME280;20564;42.902;25.336;2024-01-30T07:15:55;99454.31;;;-0.14;94.69
34297;BME280;20564;42.902;25.336;2024-01-30T07:18:22;99450.81;;;-0.10;94.15
34297;BME280;20564;42.902;25.336;2024-01-30T07:20:49;99443.84;;;-0.05;94.18
34297;BME280;20564;42.902;25.336;2024-01-30T07:23:16;99451.50;;;0.03;94.03
34297;BME280;20564;42.902;25.336;2024-01-30T07:25:44;99450.53;;;0.13;94.01
34297;BME280;20564;42.902;25.336;2024-01-30T07:28:14;99454.81;;;0.15;92.68
34297;BME280;20564;42.902;25.336;2024-01-30T07:30:43;99452.25;;;0.12;93.12
34297;BME280;20564;42.902;25.336;2024-01-30T07:33:10;99456.59;;;0.12;93.58
34297;BME280;20564;42.902;25.336;2024-01-30T07:35:37;99453.94;;;0.16;93.87
34297;BME280;20564;42.902;25.336;2024-01-30T07:38:05;99455.53;;;0.27;92.77
34297;BME280;20564;42.902;25.336;2024-01-30T07:40:32;99453.75;;;0.29;91.62
34297;BME280;20564;42.902;25.336;2024-01-30T07:43:01;99457.31;;;0.21;91.66
34297;BME280;20564;42.902;25.336;2024-01-30T07:45:30;99448.69;;;0.22;92.24
34297;BME280;20564;42.902;25.336;2024-01-30T07:47:59;99457.22;;;0.28;92.26
34297;BME280;20564;42.902;25.336;2024-01-30T07:50:27;99457.16;;;0.34;91.48
34297;BME280;20564;42.902;25.336;2024-01-30T07:52:56;99463.97;;;0.41;91.17
34297;BME280;20564;42.902;25.336;2024-01-30T07:55:23;99456.19;;;0.39;91.41
34297;BME280;20564;42.902;25.336;2024-01-30T07:57:58;99456.25;;;0.38;90.72
34297;BME280;20564;42.902;25.336;2024-01-30T08:00:26;99458.78;;;0.41;91.70
34297;BME280;20564;42.902;25.336;2024-01-30T08:02:53;99457.84;;;0.46;91.39
34297;BME280;20564;42.902;25.336;2024-01-30T08:05:22;99454.34;;;0.47;91.47
34297;BME280;20564;42.902;25.336;2024-01-30T08:07:50;99455.03;;;0.60;91.73
34297;BME280;20564;42.902;25.336;2024-01-30T08:10:18;99455.00;;;0.63;91.24
34297;BME280;20564;42.902;25.336;2024-01-30T08:12:45;99458.25;;;0.78;90.04
34297;BME280;20564;42.902;25.336;2024-01-30T08:15:13;99454.00;;;0.74;89.70
34297;BME280;20564;42.902;25.336;2024-01-30T08:17:40;99449.59;;;0.79;89.89
34297;BME280;20564;42.902;25.336;2024-01-30T08:20:07;99445.03;;;0.91;89.80
34297;BME280;20564;42.902;25.336;2024-01-30T08:22:39;99444.16;;;0.94;89.27
34297;BME280;20564;42.902;25.336;2024-01-30T08:25:08;99441.44;;;1.02;86.31
34297;BME280;20564;42.902;25.336;2024-01-30T08:27:36;99443.25;;;0.95;86.59
34297;BME280;20564;42.902;25.336;2024-01-30T08:30:08;99440.63;;;0.98;87.10
34297;BME280;20564;42.902;25.336;2024-01-30T08:32:35;99451.88;;;0.97;86.03
34297;BME280;20564;42.902;25.336;2024-01-30T08:35:02;99449.44;;;0.88;85.31
34297;BME280;20564;42.902;25.336;2024-01-30T08:37:30;99445.16;;;0.85;85.21
34297;BME280;20564;42.902;25.336;2024-01-30T08:39:57;99463.38;;;0.81;85.70
34297;BME280;20564;42.902;25.336;2024-01-30T08:42:24;99460.75;;;0.82;85.58
34297;BME280;20564;42.902;25.336;2024-01-30T08:44:51;99466.88;;;0.77;84.03
34297;BME280;20564;42.902;25.336;2024-01-30T08:47:19;99472.22;;;0.67;85.65
34297;BME280;20564;42.902;25.336;2024-01-30T08:49:52;99468.91;;;0.59;86.64
34297;BME280;20564;42.902;25.336;2024-01-30T08:52:19;99463.66;;;0.62;86.85
34297;BME280;20564;42.902;25.336;2024-01-30T08:54:46;99460.16;;;0.66;86.02
34297;BME280;20564;42.902;25.336;2024-01-30T08:57:13;99460.88;;;0.73;85.82
34297;BME280;20564;42.902;25.336;2024-01-30T08:59:40;99468.56;;;0.79;83.72
34297;BME280;20564;42.902;25.336;2024-01-30T09:02:07;99470.31;;;0.79;84.61
34297;BME280;20564;42.902;25.336;2024-01-30T09:04:39;99465.00;;;0.86;85.22
34297;BME280;20564;42.902;25.336;2024-01-30T09:07:06;99459.72;;;0.94;84.88
34297;BME280;20564;42.902;25.336;2024-01-30T09:09:40;99454.63;;;0.88;83.49
34297;BME280;20564;42.902;25.336;2024-01-30T09:12:09;99452.91;;;0.88;82.87
34297;BME280;20564;42.902;25.336;2024-01-30T09:14:39;99453.63;;;0.96;83.18
34297;BME280;20564;42.902;25.336;2024-01-30T09:17:06;99455.28;;;1.01;82.27
34297;BME280;20564;42.902;25.336;2024-01-30T09:19:33;99452.72;;;0.99;82.02
34297;BME280;20564;42.902;25.336;2024-01-30T09:22:01;99451.84;;;0.99;81.55
34297;BME280;20564;42.902;25.336;2024-01-30T09:24:28;99442.44;;;0.93;81.59
34297;BME280;20564;42.902;25.336;2024-01-30T09:26:55;99437.34;;;0.87;82.30
34297;BME280;20564;42.902;25.336;2024-01-30T09:29:22;99438.91;;;0.97;82.48
34297;BME280;20564;42.902;25.336;2024-01-30T09:31:49;99428.63;;;0.91;81.89
34297;BME280;20564;42.902;25.336;2024-01-30T09:34:15;99441.56;;;0.94;82.32
34297;BME280;20564;42.902;25.336;2024-01-30T09:36:43;99436.38;;;0.95;81.47
34297;BME280;20564;42.902;25.336;2024-01-30T09:39:10;99427.66;;;0.98;80.24
34297;BME280;20564;42.902;25.336;2024-01-30T09:42:18;99426.63;;;1.10;80.71
34297;BME280;20564;42.902;25.336;2024-01-30T09:44:38;99423.88;;;1.17;81.40
34297;BME280;20564;42.902;25.336;2024-01-30T09:47:08;99423.56;;;1.34;79.30
34297;BME280;20564;42.902;25.336;2024-01-30T09:49:36;99423.41;;;1.42;78.56
34297;BME280;20564;42.902;25.336;2024-01-30T09:52:08;99420.66;;;1.51;78.44
34297;BME280;20564;42.902;25.336;2024-01-30T09:54:35;99425.84;;;1.51;78.62
34297;BME280;20564;42.902;25.336;2024-01-30T09:57:03;99428.34;;;1.56;78.80
34297;BME280;20564;42.902;25.336;2024-01-30T09:59:31;99425.84;;;1.51;77.93
34297;BME280;20564;42.902;25.336;2024-01-30T10:01:58;99419.94;;;1.44;77.64
34297;BME280;20564;42.902;25.336;2024-01-30T10:04:31;99418.88;;;1.53;76.82
34297;BME280;20564;42.902;25.336;2024-01-30T10:07:01;99431.66;;;1.64;77.38
34297;BME280;20564;42.902;25.336;2024-01-30T10:09:32;99424.75;;;1.63;75.56
34297;BME280;20564;42.902;25.336;2024-01-30T10:11:59;99417.78;;;1.66;75.67
34297;BME280;20564;42.902;25.336;2024-01-30T10:14:26;99417.88;;;1.62;75.13
34297;BME280;20564;42.902;25.336;2024-01-30T10:16:53;99422.06;;;1.67;76.25
34297;BME280;20564;42.902;25.336;2024-01-30T10:19:20;99417.56;;;1.77;76.10
34297;BME280;20564;42.902;25.336;2024-01-30T10:21:48;99424.72;;;1.66;74.70
34297;BME280;20564;42.902;25.336;2024-01-30T10:24:14;99424.16;;;1.50;75.91
34297;BME280;20564;42.902;25.336;2024-01-30T10:26:43;99420.88;;;1.39;76.78
34297;BME280;20564;42.902;25.336;2024-01-30T10:29:10;99420.88;;;1.39;76.39
34297;BME280;20564;42.902;25.336;2024-01-30T10:31:37;99420.13;;;1.35;75.95
34297;BME280;20564;42.902;25.336;2024-01-30T10:34:07;99422.66;;;1.37;76.68
34297;BME280;20564;42.902;25.336;2024-01-30T10:36:50;99416.72;;;1.32;76.23
34297;BME280;20564;42.902;25.336;2024-01-30T10:39:20;99419.22;;;1.35;76.52
34297;BME280;20564;42.902;25.336;2024-01-30T10:41:50;99415.59;;;1.45;76.81
34297;BME280;20564;42.902;25.336;2024-01-30T10:44:22;99406.00;;;1.50;77.77
34297;BME280;20564;42.902;25.336;2024-01-30T10:46:56;99396.16;;;1.66;76.05
34297;BME280;20564;42.902;25.336;2024-01-30T10:49:27;99402.84;;;1.78;76.31
34297;BME280;20564;42.902;25.336;2024-01-30T10:51:56;99388.91;;;1.82;73.57
34297;BME280;20564;42.902;25.336;2024-01-30T10:54:25;99397.66;;;1.78;74.43
34297;BME280;20564;42.902;25.336;2024-01-30T10:56:53;99393.41;;;1.74;76.02
34297;BME280;20564;42.902;25.336;2024-01-30T10:59:23;99392.81;;;1.59;75.09
34297;BME280;20564;42.902;25.336;2024-01-30T11:01:50;99394.44;;;1.65;75.60
34297;BME280;20564;42.902;25.336;2024-01-30T11:04:18;99389.03;;;1.76;74.19
34297;BME280;20564;42.902;25.336;2024-01-30T11:06:45;99383.97;;;1.69;74.64
34297;BME280;20564;42.902;25.336;2024-01-30T11:09:17;99392.50;;;1.75;73.12
34297;BME280;20564;42.902;25.336;2024-01-30T11:11:58;99389.03;;;1.76;73.54
34297;BME280;20564;42.902;25.336;2024-01-30T11:14:29;99387.25;;;1.78;73.13
34297;BME280;20564;42.902;25.336;2024-01-30T11:16:57;99382.00;;;1.81;73.60
34297;BME280;20564;42.902;25.336;2024-01-30T11:19:26;99377.59;;;1.84;72.50
34297;BME280;20564;42.902;25.336;2024-01-30T11:21:54;99371.56;;;1.84;73.16
34297;BME280;20564;42.902;25.336;2024-01-30T11:24:24;99371.75;;;1.75;72.45
34297;BME280;20564;42.902;25.336;2024-01-30T11:27:00;99362.16;;;1.78;71.60
34297;BME280;20564;42.902;25.336;2024-01-30T11:29:28;99353.50;;;1.79;70.90
34297;BME280;20564;42.902;25.336;2024-01-30T11:31:57;99358.00;;;1.69;70.41
34297;BME280;20564;42.902;25.336;2024-01-30T11:34:25;99358.34;;;1.53;71.57
34297;BME280;20564;42.902;25.336;2024-01-30T11:37:03;99354.03;;;1.52;72.71
34297;BME280;20564;42.902;25.336;2024-01-30T11:39:36;99358.22;;;1.59;71.77
34297;BME280;20564;42.902;25.336;2024-01-30T11:42:04;99349.59;;;1.58;71.42
34297;BME280;20564;42.902;25.336;2024-01-30T11:44:32;99347.22;;;1.48;70.67
34297;BME280;20564;42.902;25.336;2024-01-30T11:46:59;99356.75;;;1.47;71.99
34297;BME280;20564;42.902;25.336;2024-01-30T11:49:26;99358.34;;;1.54;72.12
34297;BME280;20564;42.902;25.336;2024-01-30T11:51:53;99349.81;;;1.48;72.52
34297;BME280;20564;42.902;25.336;2024-01-30T11:54:20;99349.91;;;1.41;72.18
34297;BME280;20564;42.902;25.336;2024-01-30T11:56:47;99355.25;;;1.34;71.73
34297;BME280;20564;42.902;25.336;2024-01-30T11:59:14;99351.84;;;1.32;72.71
34297;BME280;20564;42.902;25.336;2024-01-30T12:01:41;99345.88;;;1.27;72.90
34297;BME280;20564;42.902;25.336;2024-01-30T12:04:09;99344.28;;;1.19;75.00
34297;BME280;20564;42.902;25.336;2024-01-30T12:06:37;99341.94;;;1.07;74.36
34297;BME280;20564;42.902;25.336;2024-01-30T12:09:05;99333.22;;;1.11;72.94
34297;BME280;20564;42.902;25.336;2024-01-30T12:11:48;99333.81;;;1.24;73.36
34297;BME280;20564;42.902;25.336;2024-01-30T12:14:19;99331.09;;;1.32;72.80
34297;BME280;20564;42.902;25.336;2024-01-30T12:16:49;99330.22;;;1.33;73.02
34297;BME280;20564;42.902;25.336;2024-01-30T12:19:26;99329.31;;;1.34;73.80
34297;BME280;20564;42.902;25.336;2024-01-30T12:21:57;99325.59;;;1.47;73.79
34297;BME280;20564;42.902;25.336;2024-01-30T12:24:27;99320.25;;;1.53;73.00
34297;BME280;20564;42.902;25.336;2024-01-30T12:26:58;99322.88;;;1.53;72.18
34297;BME280;20564;42.902;25.336;2024-01-30T12:29:25;99315.00;;;1.56;72.31
34297;BME280;20564;42.902;25.336;2024-01-30T12:31:59;99317.56;;;1.59;73.38
34297;BME280;20564;42.902;25.336;2024-01-30T12:34:26;99304.78;;;1.50;71.68
34297;BME280;20564;42.902;25.336;2024-01-30T12:36:53;99314.28;;;1.51;71.79
34297;BME280;20564;42.902;25.336;2024-01-30T12:39:20;99322.84;;;1.55;71.83
34297;BME280;20564;42.902;25.336;2024-01-30T12:41:48;99322.00;;;1.54;72.04
34297;BME280;20564;42.902;25.336;2024-01-30T12:44:15;99316.97;;;1.47;71.19
34297;BME280;20564;42.902;25.336;2024-01-30T12:46:42;99318.78;;;1.43;72.12
34297;BME280;20564;42.902;25.336;2024-01-30T12:49:14;99316.00;;;1.51;70.91
34297;BME280;20564;42.902;25.336;2024-01-30T12:51:41;99318.59;;;1.51;71.49
34297;BME280;20564;42.902;25.336;2024-01-30T12:54:08;99325.44;;;1.53;70.46
34297;BME280;20564;42.902;25.336;2024-01-30T12:56:35;99316.91;;;1.48;70.79
34297;BME280;20564;42.902;25.336;2024-01-30T12:59:02;99306.59;;;1.45;72.18
34297;BME280;20564;42.902;25.336;2024-01-30T13:01:29;99313.59;;;1.43;70.89